createdAt,value
2022-11-20T00:01:14.622Z,36.75
2022-11-20T00:03:44.666Z,36.86
2022-11-20T00:06:14.549Z,37.00
2022-11-20T00:08:43.012Z,36.96
2022-11-20T00:11:15.786Z,37.35
2022-11-20T00:13:44.580Z,37.25
2022-11-20T00:16:14.122Z,37.51
2022-11-20T00:18:43.358Z,38.09
2022-11-20T00:21:14.613Z,38.01
2022-11-20T00:23:43.338Z,38.10
2022-11-20T00:26:12.703Z,38.07
2022-11-20T00:28:41.502Z,37.95
2022-11-20T00:31:11.330Z,37.67
2022-11-20T00:33:39.660Z,37.69
2022-11-20T00:36:10.246Z,37.73
2022-11-20T00:38:39.978Z,37.62
2022-11-20T00:41:09.240Z,37.94
2022-11-20T00:43:37.819Z,37.45
2022-11-20T00:46:08.473Z,37.56
2022-11-20T00:48:37.034Z,37.64
2022-11-20T00:51:05.720Z,37.73
2022-11-20T00:53:34.118Z,37.74
2022-11-20T00:56:05.436Z,37.98
2022-11-20T00:58:34.834Z,38.27
2022-11-20T01:01:03.553Z,37.93
2022-11-20T01:03:33.328Z,37.96
2022-11-20T01:06:05.799Z,37.75
2022-11-20T01:08:35.191Z,38.05
2022-11-20T01:11:06.798Z,38.06
2022-11-20T01:13:42.224Z,37.87
2022-11-20T01:16:11.821Z,38.20
2022-11-20T01:18:42.874Z,37.95
2022-11-20T01:21:13.229Z,38.16
2022-11-20T01:23:42.695Z,37.33
2022-11-20T01:26:14.654Z,38.06
2022-11-20T01:28:43.606Z,38.10
2022-11-20T01:31:16.455Z,38.10
2022-11-20T01:33:45.874Z,38.15
2022-11-20T01:36:15.003Z,38.31
2022-11-20T01:38:43.512Z,38.29
2022-11-20T01:41:34.524Z,38.35
2022-11-20T01:44:03.241Z,38.43
2022-11-20T01:46:31.339Z,38.52
2022-11-20T01:49:03.298Z,38.77
2022-11-20T01:51:35.849Z,39.01
2022-11-20T01:54:07.603Z,38.33
2022-11-20T01:56:39.356Z,38.14
2022-11-20T01:59:09.692Z,38.54
2022-11-20T02:01:38.003Z,38.79
2022-11-20T02:04:06.544Z,38.57
2022-11-20T02:06:38.209Z,38.38
2022-11-20T02:09:06.532Z,38.92
2022-11-20T02:11:34.599Z,38.52
2022-11-20T02:14:03.367Z,38.52
2022-11-20T02:16:34.670Z,38.52
2022-11-20T02:19:04.926Z,38.62
2022-11-20T02:21:37.478Z,38.15
2022-11-20T02:24:10.297Z,38.02
2022-11-20T02:26:44.379Z,38.04
2022-11-20T02:29:12.954Z,38.80
2022-11-20T02:31:43.679Z,38.45
2022-11-20T02:34:11.972Z,38.39
2022-11-20T02:36:41.775Z,38.51
2022-11-20T02:39:12.152Z,38.48
2022-11-20T02:41:40.535Z,38.90
2022-11-20T02:44:08.985Z,38.46
2022-11-20T02:46:37.304Z,38.85
2022-11-20T02:49:06.861Z,38.78
2022-11-20T02:51:35.039Z,38.68
2022-11-20T02:54:03.562Z,39.15
2022-11-20T02:56:33.346Z,39.09
2022-11-20T02:59:01.780Z,38.84
2022-11-20T03:01:29.961Z,38.93
2022-11-20T03:03:58.496Z,39.30
2022-11-20T03:06:26.676Z,39.06
2022-11-20T03:08:55.140Z,39.43
2022-11-20T03:11:23.469Z,39.25
2022-11-20T07:34:04.709Z,19.25
2022-11-20T07:36:32.780Z,19.50
2022-11-20T07:39:01.121Z,18.82
2022-11-20T07:41:30.167Z,18.25
2022-11-20T07:43:58.539Z,17.71
2022-11-20T07:46:26.816Z,17.66
2022-11-20T07:48:55.688Z,17.13
2022-11-20T07:51:25.011Z,16.57
2022-11-20T07:53:53.863Z,17.38
2022-11-20T07:56:21.871Z,16.32
2022-11-20T07:58:50.381Z,16.12
2022-11-20T08:01:18.488Z,16.35
2022-11-20T08:03:46.993Z,16.81
2022-11-20T08:06:15.815Z,17.79
2022-11-20T08:08:45.692Z,19.13
2022-11-20T08:11:31.128Z,19.12
2022-11-20T08:14:14.603Z,20.44
2022-11-20T08:16:43.141Z,21.60
2022-11-20T08:19:11.790Z,22.21
2022-11-20T08:21:40.057Z,22.47
2022-11-20T08:24:10.643Z,22.58
2022-11-20T08:26:40.008Z,22.89
2022-11-20T08:29:08.769Z,23.26
2022-11-20T08:31:37.204Z,23.32
2022-11-20T08:34:25.575Z,23.53
2022-11-20T08:36:53.684Z,24.01
2022-11-20T08:39:23.666Z,24.59
2022-11-20T08:41:51.986Z,24.93
2022-11-20T08:44:20.309Z,25.75
2022-11-20T08:46:48.307Z,26.11
2022-11-20T08:49:17.165Z,26.59
2022-11-20T08:51:46.090Z,26.93
2022-11-20T08:54:14.604Z,26.51
2022-11-20T08:56:44.002Z,26.51
2022-11-20T08:59:50.682Z,26.53
2022-11-20T09:02:00.540Z,26.56
2022-11-20T09:04:28.861Z,26.31
2022-11-20T09:06:56.938Z,26.30
2022-11-20T09:09:25.807Z,26.53
2022-11-20T09:11:55.553Z,25.94
2022-11-20T09:14:25.879Z,25.99
2022-11-20T09:16:53.970Z,25.85
2022-11-20T09:19:36.557Z,25.56
2022-11-20T09:22:04.769Z,25.55
2022-11-20T09:24:33.064Z,25.39
2022-11-20T09:27:05.771Z,24.87
2022-11-20T09:29:34.246Z,24.16
2022-11-20T09:32:02.311Z,23.82
2022-11-20T09:34:30.703Z,24.04
2022-11-20T09:37:01.578Z,24.01
2022-11-20T09:39:32.911Z,24.24
2022-11-20T09:42:13.841Z,23.96
2022-11-20T09:44:54.464Z,24.20
2022-11-20T09:47:30.735Z,24.60
2022-11-20T09:50:12.891Z,24.59
2022-11-20T09:52:48.466Z,25.07
2022-11-20T09:55:17.254Z,25.14
2022-11-20T09:57:48.575Z,25.09
2022-11-20T10:00:17.805Z,25.21
2022-11-20T10:02:50.291Z,25.24
2022-11-20T10:05:21.239Z,25.47
2022-11-20T10:07:56.464Z,25.36
2022-11-20T10:10:32.775Z,25.11
2022-11-20T10:13:13.039Z,25.16
2022-11-20T10:15:49.892Z,25.04
2022-11-20T10:18:27.540Z,25.06
2022-11-20T10:21:00.471Z,25.31
2022-11-20T10:23:48.615Z,25.39
2022-11-20T10:26:21.213Z,25.62
2022-11-20T10:29:21.007Z,25.59
2022-11-20T10:31:55.885Z,25.79
2022-11-20T10:34:28.111Z,25.90
2022-11-20T10:36:58.211Z,25.74
2022-11-20T10:39:33.547Z,24.10
2022-11-20T10:42:01.944Z,23.24
2022-11-20T10:44:52.503Z,22.87
2022-11-20T10:47:24.961Z,22.94
2022-11-20T10:49:55.399Z,22.65
2022-11-20T10:52:29.388Z,22.81
2022-11-20T10:55:02.221Z,23.05
2022-11-20T10:57:44.257Z,22.99
2022-11-20T11:00:15.335Z,22.97
2022-11-20T11:02:45.724Z,23.77
2022-11-20T11:05:33.534Z,23.97
2022-11-20T11:08:01.878Z,24.57
2022-11-20T11:10:35.346Z,24.83
2022-11-20T11:13:03.717Z,25.33
2022-11-20T11:15:40.288Z,24.58
2022-11-20T11:18:11.175Z,23.93
2022-11-20T11:20:39.966Z,22.43
2022-11-20T11:23:29.113Z,20.25
2022-11-20T11:26:00.708Z,18.21
2022-11-20T11:28:29.552Z,17.59
2022-11-20T11:30:59.091Z,17.98
2022-11-20T11:33:28.786Z,18.56
2022-11-20T11:35:59.297Z,19.53
2022-11-20T11:38:31.969Z,20.57
2022-11-20T11:41:00.181Z,21.75
2022-11-20T11:43:49.599Z,21.80
2022-11-20T11:46:28.733Z,22.35
2022-11-20T11:49:00.722Z,22.75
2022-11-20T11:51:32.703Z,22.84
2022-11-20T11:54:01.616Z,23.04
2022-11-20T11:56:30.583Z,23.50
2022-11-20T11:59:01.675Z,23.95
2022-11-20T12:01:35.305Z,24.26
2022-11-20T12:04:07.405Z,25.08
2022-11-20T12:06:38.143Z,25.79
2022-11-20T12:09:07.862Z,25.99
2022-11-20T12:11:41.235Z,26.18
2022-11-20T12:14:15.840Z,26.20
2022-11-20T12:16:45.428Z,26.34
2022-11-20T12:19:15.735Z,26.58
2022-11-20T12:21:58.476Z,25.94
2022-11-20T12:24:49.298Z,25.52
2022-11-20T12:27:40.508Z,25.58
2022-11-20T12:30:11.421Z,25.65
2022-11-20T12:32:56.414Z,25.15
2022-11-20T12:35:44.920Z,25.42
2022-11-20T12:38:48.644Z,25.86
2022-11-20T12:41:37.579Z,25.92
2022-11-20T12:44:30.729Z,26.31
2022-11-20T12:47:10.999Z,26.62
2022-11-20T12:49:44.520Z,26.96
2022-11-20T12:52:23.269Z,27.27
2022-11-20T12:55:10.421Z,27.53
2022-11-20T12:57:46.016Z,28.16
2022-11-20T13:00:17.414Z,28.58
2022-11-20T13:03:15.976Z,28.30
2022-11-20T13:05:53.693Z,28.89
2022-11-20T13:08:24.877Z,30.92
2022-11-20T13:10:59.678Z,29.56
2022-11-20T13:13:33.548Z,29.49
2022-11-20T13:16:06.481Z,29.44
2022-11-20T13:18:48.629Z,29.39
2022-11-20T13:21:37.131Z,29.24
2022-11-20T13:24:09.095Z,29.11
2022-11-20T13:26:37.206Z,29.55
2022-11-20T13:29:11.900Z,29.52
2022-11-20T13:31:43.844Z,30.45
2022-11-20T13:34:15.126Z,30.32
2022-11-20T13:36:53.601Z,30.23
2022-11-20T13:39:28.457Z,30.07
2022-11-20T13:41:57.948Z,30.96
2022-11-20T13:44:29.000Z,30.94
2022-11-20T13:46:57.133Z,31.02
2022-11-20T13:49:28.523Z,30.31
2022-11-20T13:52:08.446Z,30.50
2022-11-20T13:54:55.193Z,30.44
2022-11-20T13:57:37.959Z,30.40
2022-11-20T14:00:21.204Z,30.59
2022-11-20T14:03:01.919Z,30.96
2022-11-20T14:05:31.098Z,31.37
2022-11-20T14:08:00.950Z,31.41
2022-11-20T14:10:32.312Z,31.39
2022-11-20T14:13:00.882Z,31.70
2022-11-20T14:15:32.128Z,31.48
2022-11-20T14:18:01.050Z,31.79
2022-11-20T14:20:32.409Z,31.90
2022-11-20T14:23:01.902Z,31.86
2022-11-20T14:25:32.088Z,31.95
2022-11-20T14:28:02.214Z,31.65
2022-11-20T14:30:38.103Z,31.75
2022-11-20T14:33:06.348Z,31.77
2022-11-20T14:35:46.409Z,31.57
2022-11-20T14:38:17.724Z,31.59
2022-11-20T14:40:46.399Z,31.83
2022-11-20T14:43:20.627Z,31.56
2022-11-20T14:45:55.249Z,31.71
2022-11-20T14:48:26.508Z,31.51
2022-11-20T14:50:54.812Z,31.78
2022-11-20T14:53:26.666Z,31.58
2022-11-20T14:56:00.261Z,31.31
2022-11-20T14:58:29.762Z,31.82
2022-11-20T15:00:59.112Z,32.03
2022-11-20T15:03:34.068Z,31.38
2022-11-20T15:06:02.854Z,32.08
2022-11-20T15:08:32.516Z,31.97
2022-11-20T15:11:01.050Z,32.14
2022-11-20T15:13:32.323Z,31.41
2022-11-20T15:16:01.576Z,31.95
2022-11-20T15:18:32.132Z,31.90
2022-11-20T15:21:03.867Z,31.59
2022-11-20T15:23:33.285Z,31.86
2022-11-20T15:26:01.687Z,31.87
2022-11-20T15:28:32.638Z,31.89
2022-11-20T15:31:01.170Z,30.84
2022-11-20T15:33:29.883Z,31.88
2022-11-20T15:35:58.688Z,31.69
2022-11-20T15:38:26.880Z,31.78
2022-11-20T15:40:56.646Z,31.74
2022-11-20T15:43:24.707Z,31.79
2022-11-20T15:45:55.597Z,31.95
2022-11-20T15:48:25.544Z,31.77
2022-11-20T15:50:56.908Z,31.64
2022-11-20T15:53:25.115Z,32.12
2022-11-20T15:55:53.564Z,31.88
2022-11-20T15:58:24.029Z,31.96
2022-11-20T16:00:52.766Z,32.27
2022-11-20T16:03:21.106Z,32.19
2022-11-20T16:05:49.522Z,32.17
2022-11-20T16:08:17.618Z,32.04
2022-11-20T16:10:46.021Z,32.40
2022-11-20T16:13:33.266Z,32.20
2022-11-20T16:16:06.534Z,32.53
2022-11-20T16:18:35.326Z,32.73
2022-11-20T16:21:04.193Z,32.77
2022-11-20T16:23:32.311Z,32.64
2022-11-20T16:26:00.720Z,32.99
2022-11-20T16:28:28.967Z,32.70
2022-11-20T16:30:57.457Z,32.64
2022-11-20T16:33:27.008Z,32.48
2022-11-20T16:35:55.416Z,32.73
2022-11-20T16:38:23.625Z,32.44
2022-11-20T16:40:52.005Z,32.60
2022-11-20T16:43:20.377Z,32.79
2022-11-20T16:45:48.841Z,32.57
2022-11-20T16:48:17.931Z,32.84
2022-11-20T16:50:52.524Z,32.45
2022-11-20T16:53:22.141Z,32.58
2022-11-20T16:55:50.819Z,33.19
2022-11-20T16:58:19.020Z,33.11
2022-11-20T17:00:51.595Z,33.23
2022-11-20T17:03:21.130Z,33.27
2022-11-20T17:05:51.017Z,33.58
2022-11-20T17:08:19.275Z,33.66
2022-11-20T17:10:47.834Z,33.88
2022-11-20T17:13:17.154Z,33.81
2022-11-20T17:15:45.479Z,34.08
2022-11-20T17:18:13.572Z,34.78
2022-11-20T17:20:41.948Z,35.03
2022-11-20T17:23:11.504Z,35.10
2022-11-20T17:25:39.982Z,35.09
2022-11-20T17:28:08.154Z,35.10
2022-11-20T17:30:36.526Z,35.09
2022-11-20T17:33:04.735Z,35.47
2022-11-20T17:35:33.081Z,36.04
2022-11-20T17:38:01.175Z,35.74
2022-11-20T17:40:32.111Z,35.54
2022-11-20T17:43:00.210Z,35.50
2022-11-20T17:45:28.649Z,35.75
2022-11-20T17:47:57.849Z,35.76
2022-11-20T17:50:26.651Z,35.79
2022-11-20T17:52:55.455Z,35.72
2022-11-20T17:55:24.076Z,36.06
2022-11-20T17:57:52.675Z,35.92
2022-11-20T18:00:21.264Z,36.18
2022-11-20T18:02:49.485Z,36.46
2022-11-20T18:05:18.135Z,36.20
2022-11-20T18:07:46.459Z,36.46
2022-11-20T18:10:15.056Z,36.39
2022-11-20T18:12:44.043Z,36.39
2022-11-20T18:15:13.982Z,36.32
2022-11-20T18:17:42.102Z,36.48
2022-11-20T18:20:28.753Z,36.71
2022-11-20T18:22:57.829Z,36.62
2022-11-20T18:25:26.341Z,36.80
2022-11-20T18:27:54.954Z,36.88
2022-11-20T18:30:25.126Z,36.81
2022-11-20T18:32:53.638Z,36.73
2022-11-20T18:35:22.417Z,36.96
2022-11-20T18:37:50.517Z,37.15
2022-11-20T18:40:19.021Z,37.17
2022-11-20T18:43:04.708Z,37.41
2022-11-20T18:45:34.688Z,37.30
2022-11-20T18:48:02.933Z,37.28
2022-11-20T18:50:31.437Z,37.38
2022-11-20T18:52:59.532Z,37.28
2022-11-20T18:55:27.980Z,37.26
2022-11-20T18:57:56.209Z,37.30
2022-11-20T19:00:24.951Z,37.44
2022-11-20T19:02:55.493Z,37.10
2022-11-20T19:05:23.984Z,37.26
2022-11-20T19:07:52.447Z,37.74
2022-11-20T19:10:21.314Z,37.62
2022-11-20T19:12:49.514Z,37.46
2022-11-20T19:15:17.926Z,37.39
2022-11-20T19:17:46.123Z,37.39
2022-11-20T19:20:15.996Z,37.65
2022-11-20T19:22:44.170Z,37.54
2022-11-20T19:25:12.661Z,37.57
2022-11-20T19:27:40.982Z,37.25
2022-11-20T19:30:10.735Z,37.45
2022-11-20T19:32:38.939Z,37.54
2022-11-20T19:35:07.915Z,37.19
2022-11-20T19:37:37.628Z,36.94
2022-11-20T19:40:07.054Z,36.85
2022-11-20T19:42:35.338Z,37.12
2022-11-20T19:45:03.715Z,36.88
2022-11-20T19:48:00.553Z,36.63
2022-11-20T19:50:20.368Z,36.71
2022-11-20T19:52:52.013Z,36.20
2022-11-20T19:55:24.112Z,36.43
2022-11-20T19:57:52.340Z,36.27
2022-11-20T20:00:28.093Z,36.13
2022-11-20T20:03:00.643Z,36.19
2022-11-20T20:05:29.025Z,36.07
2022-11-20T20:07:58.860Z,35.95
2022-11-20T20:10:27.323Z,36.14
2022-11-20T20:12:55.583Z,35.98
2022-11-20T20:15:24.100Z,36.18
2022-11-20T20:17:52.945Z,35.89
2022-11-20T20:20:22.944Z,35.99
2022-11-20T20:22:51.156Z,36.15
2022-11-20T20:25:21.040Z,35.95
2022-11-20T20:27:49.180Z,35.85
2022-11-20T20:30:17.682Z,35.65
2022-11-20T20:32:45.846Z,35.72
2022-11-20T20:35:14.257Z,35.68
2022-11-20T20:37:42.554Z,36.14
2022-11-20T20:40:15.103Z,35.79
2022-11-20T20:42:45.270Z,35.64
2022-11-20T20:45:12.695Z,35.73
2022-11-20T20:47:42.003Z,35.46
2022-11-20T20:50:11.661Z,35.36
2022-11-20T20:52:39.988Z,35.29
2022-11-20T20:55:08.914Z,35.19
2022-11-20T20:57:37.353Z,35.06
2022-11-20T21:00:09.049Z,34.95
2022-11-20T21:02:36.892Z,33.74
2022-11-20T21:05:05.907Z,34.99
2022-11-20T21:07:34.062Z,34.86
2022-11-20T21:10:02.477Z,34.98
2022-11-20T21:12:30.609Z,34.86
2022-11-20T21:14:58.923Z,34.81
2022-11-20T21:17:29.231Z,34.39
2022-11-20T21:19:57.730Z,34.44
2022-11-20T21:22:24.778Z,34.72
2022-11-20T21:24:53.171Z,34.58
2022-11-20T21:27:21.316Z,34.35
2022-11-20T21:29:49.884Z,34.39
2022-11-20T21:32:18.064Z,34.40
2022-11-20T21:34:47.889Z,33.99
2022-11-20T21:37:16.025Z,34.14
2022-11-20T21:39:50.799Z,34.34
2022-11-20T21:42:19.041Z,34.26
2022-11-20T21:44:47.960Z,34.20
2022-11-20T21:47:16.110Z,34.09
2022-11-20T21:49:44.436Z,34.15
2022-11-20T21:52:13.883Z,33.75
2022-11-20T21:54:42.250Z,34.07
2022-11-20T21:57:10.321Z,33.92
2022-11-20T21:59:38.667Z,33.90
2022-11-20T22:02:08.062Z,33.96
2022-11-20T22:04:36.547Z,33.81
2022-11-20T22:07:06.323Z,33.88
2022-11-20T22:09:36.266Z,33.59
2022-11-20T22:12:04.778Z,34.06
2022-11-20T22:14:32.252Z,33.76
2022-11-20T22:17:00.306Z,33.84
2022-11-20T22:19:28.710Z,33.82
2022-11-20T22:21:56.767Z,33.71
2022-11-20T22:24:25.447Z,33.71
2022-11-20T22:26:55.242Z,33.35
2022-11-20T22:29:23.561Z,33.60
2022-11-20T22:31:53.164Z,33.63
2022-11-20T22:34:21.928Z,33.68
2022-11-20T22:36:50.126Z,33.91
2022-11-20T22:39:18.793Z,33.60
2022-11-20T22:41:46.890Z,33.64
2022-11-20T22:44:17.385Z,33.64
2022-11-20T22:46:45.500Z,33.94
2022-11-20T22:49:13.981Z,33.80
2022-11-20T22:51:43.079Z,33.70
2022-11-20T22:54:12.750Z,33.58
2022-11-20T22:56:41.310Z,33.78
2022-11-20T22:59:09.811Z,33.74
2022-11-20T23:01:39.549Z,33.62
2022-11-20T23:04:10.702Z,33.88
2022-11-20T23:06:39.131Z,34.13
2022-11-20T23:09:09.449Z,34.17
2022-11-20T23:11:37.686Z,33.98
2022-11-20T23:14:07.360Z,33.93
2022-11-20T23:16:36.179Z,33.94
2022-11-20T23:19:07.676Z,33.78
2022-11-20T23:21:36.219Z,33.79
2022-11-20T23:24:05.217Z,34.21
2022-11-20T23:26:35.508Z,33.88
2022-11-20T23:29:05.304Z,33.90
2022-11-20T23:31:34.257Z,33.87
2022-11-20T23:34:02.876Z,34.26
2022-11-20T23:36:32.381Z,33.94
2022-11-20T23:39:00.754Z,34.18
2022-11-20T23:41:28.744Z,34.20
2022-11-20T23:43:57.175Z,34.02
2022-11-20T23:46:25.268Z,34.07
2022-11-20T23:48:53.624Z,34.08
2022-11-20T23:51:21.625Z,34.00
2022-11-20T23:53:51.383Z,33.81
2022-11-20T23:56:20.863Z,34.06
2022-11-20T23:58:49.305Z,34.20
